Hervé Leroux

Scout - Angers SCO
16 Dez 2027
Donnerstag
Verarbeitung

Persönlichkeit

Anpassungsfähigkeit (6) Ehrgeiz (2) Kontroverse (17) Loyalität (1) Druck (9) Professionalität (8) Fairness (18) Temperament (13)

Profil

Trainerstil Demokratisch
Lizenz Kontinentale Pro
Entschlossenheit 8
Menschenführung 4
Motivation 5
Disziplin 13
Arbeitszufriedenheit
100%
Ermüdung
0%
Rolle Scout
Gehalt 53.4K p/W
Vertrag 14.03.2030

Leistung

Verhalten Gut
Trainingseffektivität
46%
Spielerentwicklung
35%
Verletzungsprävention
50%
Taktische Umsetzung
40%

Letzte Ereignisse

Spieler begutachtet 7T her
Nahm an einer Scouting-Besprechung teil 7T her
Empfahl ein Transferziel 7T her
Spieler begutachtet 7T her
Spieler begutachtet 7T her
Spieler begutachtet 7T her
Spieler begutachtet 14T her
Spieler begutachtet 14T her

Aktuell beobachtet

176
Spieler Verein Status Fähigkeit Vertrauen Beobachtet Zuletzt beobachtet Letzte Stimme
Lucas Camejo River Plate Aktiv 86 / 93 40% 4 11.12.2027 -
Soriba Diaoune AC Ajaccio Aktiv 118 / 129 40% 3 11.12.2027 -
Sunday Aniebet Enyimba Aktiv 97 / 98 40% 2 09.12.2027 -
Shea Lacey Wolverhampton Aktiv 136 / 146 40% 3 09.12.2027 -
Mateo Silvetti Los Angeles Football Club Aktiv 124 / 139 40% 3 08.12.2027 -
Archie Gray Derby County Aktiv 153 / 163 40% 2 08.12.2027 -
Lion Beqiri Falkenberg Aktiv 100 / 99 40% 2 06.12.2027 -
Ryan McAidoo Gillingham Aktiv 123 / 129 40% 3 06.12.2027 -
Juan Camilo Córdoba Deportivo Pereira Aktiv 83 / 91 40% 1 06.12.2027 -
Franco Minerva Platense Aktiv 110 / 126 40% 2 05.12.2027 -
Santino Carrizo Chacarita Juniors Aktiv 94 / 87 40% 1 05.12.2027 -
Malick Djiguiba AS Korofina Aktiv 89 / 105 40% 1 05.12.2027 -
Musa Malik Ikorodu City Aktiv 88 / 81 40% 3 04.12.2027 -
Luca Williams-Barnett Tranmere Rovers Aktiv 122 / 129 40% 1 04.12.2027 -
Estêvão Millwall Aktiv 143 / 158 40% 5 02.12.2027 -
Oscar Otero Atletico Venezuela Aktiv 95 / 100 40% 1 02.12.2027 -
Mateus Mané Manchester United Aktiv 143 / 151 40% 4 01.12.2027 -
Alfie James Ventforet Kofu Aktiv 78 / 87 40% 3 01.12.2027 -
Joel Medina Independiente Aktiv 107 / 119 40% 2 01.12.2027 -
Tomás Aranda Boca Juniors Aktiv 106 / 116 40% 3 27.11.2027 -
Fredrik Ardraa Stromsgodset Aktiv 97 / 119 40% 3 23.11.2027 -
Ruben Ramos LA Galaxy Aktiv 90 / 113 40% 2 23.11.2027 -
Christos Mouzakitis Hull City Aktiv 137 / 142 40% 1 20.11.2027 -
Chimobi Igwilo Rangers International Aktiv 82 / 113 40% 1 20.11.2027 -
Diogo Guzmán Montevideo City Torque Aktiv 121 / 116 40% 5 18.11.2027 -
Mustapha Umar Kano Pillars Aktiv 84 / 97 40% 2 18.11.2027 -
Gustavo Lozano Metropolitanos Aktiv 91 / 96 40% 2 17.11.2027 -
Santiago López Independiente Aktiv 128 / 128 40% 1 16.11.2027 -
Tiziano Cabrera Central Norte Aktiv 92 / 95 40% 3 15.11.2027 -
Juan Rodríguez Wanderers Aktiv 96 / 110 40% 1 15.11.2027 -
Ronan Kpakio Cardiff City Aktiv 118 / 135 40% 1 14.11.2027 -
Luis Otávio Colorado Rapids Aktiv 118 / 129 40% 1 11.11.2027 -
Moussa Diarra Shonan Bellmare Aktiv 90 / 108 40% 1 11.11.2027 -
Joel Ezra Enyimba Aktiv 102 / 86 40% 2 10.11.2027 -
Alejandro Almaraz Nueva Chicago Aktiv 108 / 119 40% 1 09.11.2027 -
Mads Bomholt Stabaek Aktiv 110 / 104 40% 1 08.11.2027 -
Lukas Gausdal IK Start Aktiv 101 / 110 40% 1 08.11.2027 -
Jesús Rodríguez Como Aktiv 148 / 157 40% 2 07.11.2027 -
Gilberto Mora Atlético Madrid Aktiv 141 / 151 40% 1 07.11.2027 -
Mfundo Vilakazi Kaizer Chiefs Aktiv 110 / 134 40% 2 06.11.2027 -
Shion Shinkawa Sint-Truiden Aktiv 116 / 122 40% 1 06.11.2027 -
Sam Amo-Ameyaw RC Strasbourg Aktiv 126 / 137 40% 1 05.11.2027 -
Kirill Glebov CSKA Moscow Aktiv 136 / 135 40% 1 02.11.2027 -
Nicolas Jackson Aston Villa Aktiv 147 / 143 40% 4 05.07.2027 -
Marezi Portsmouth Aktiv 124 / 126 40% 1 05.07.2027 -
Dom Ballard Leyton Orient Aktiv 128 / 117 40% 1 05.07.2027 -
Nicolas Guillaume Tours Verloren 116 / 110 72% 1 28.06.2027 -
Kyllian Antonio RC Lens Verloren 105 / 107 72% 1 14.06.2027 -
Ricardo Pepi Chelsea Verhandlung 142 / 145 93% 1 01.06.2027 -
Konstantin Tyukavin Inter Verhandlung 132 / 133 66% 1 01.06.2027 -
Pedro de la Vega FC Dallas Bericht bereit 133 / 134 66% 1 01.06.2027 -
Amar Memić Casa Pia Aktiv 127 / 128 62% 1 01.06.2027 Befürworten
Sampson Dweh Anderlecht Verhandlung 133 / 134 66% 1 01.06.2027 -
Tom Fellows Southampton Aktiv 128 / 143 40% 4 30.05.2027 -
Ali Ahmed Norwich City Aktiv 119 / 122 40% 1 30.05.2027 -
Giacomo Raspadori Atalanta Aktiv 149 / 141 40% 6 29.05.2027 -
Morgan Whittaker Middlesbrough Aktiv 135 / 141 40% 2 29.05.2027 -
Mikkel Damsgaard Brentford Aktiv 149 / 135 40% 2 28.05.2027 -
Amadou Onana Aston Villa Aktiv 155 / 148 40% 1 28.05.2027 -
Ben Ahmed Kohili Paradou Aktiv 101 / 93 40% 1 28.05.2027 -
Iwan Morgan Grimsby Town Aktiv 110 / 122 40% 1 28.05.2027 -
Rayan Bournemouth Verhandlung 138 / 139 40% 1 27.05.2027 -
Toni Tamarit Alverca Aktiv 115 / 117 40% 1 26.05.2027 -
Sayed Abu Farchi Maccabi Tel Aviv Aktiv 114 / 143 40% 1 26.05.2027 -
Tomáš Rigo Stoke City Aktiv 134 / 128 40% 1 23.05.2027 -
Jason Knight Bristol City Aktiv 130 / 137 40% 2 22.05.2027 -
Nicolò Cambiaghi Bologna Aktiv 146 / 147 40% 1 22.05.2027 -
Othmane Maamma Watford Aktiv 130 / 123 40% 4 21.05.2027 -
Stanley Mills Oxford United Aktiv 129 / 130 40% 2 21.05.2027 -
Welington Southampton Aktiv 129 / 137 40% 3 20.05.2027 -
Harry Clarke Preston Aktiv 131 / 124 40% 1 20.05.2027 -
Ilay Camara Anderlecht Aktiv 127 / 135 40% 8 19.05.2027 -
Cian Ashford Cardiff City Aktiv 115 / 122 40% 3 19.05.2027 -
Mario Stroeykens Anderlecht Aktiv 134 / 130 40% 8 18.05.2027 -
Assane Diao Lazio Aktiv 148 / 144 40% 4 18.05.2027 -
Gustavo Ferreira Benfica Aktiv 79 / 99 40% 2 18.05.2027 -
Chineme Chinonso Ikorodu City Aktiv 84 / 91 40% 2 18.05.2027 -
Dango Ouattara Brentford Aktiv 150 / 138 40% 2 16.05.2027 -
Kasey McAteer Ipswich Town Aktiv 133 / 135 40% 2 16.05.2027 -
Daniel Kyerewaa Reading Aktiv 118 / 112 40% 2 16.05.2027 -
Ilias Sebaoui Sint-Truiden Aktiv 124 / 126 40% 6 15.05.2027 -
Erick Sánchez OGC Nice Aktiv 146 / 143 40% 5 15.05.2027 -
Osame Sahraoui LOSC Lille Aktiv 152 / 156 40% 8 15.05.2027 -
Sidiki Chérif Coventry City Aktiv 133 / 141 40% 1 15.05.2027 -
Serge Daura Cotonsport Garoua Aktiv 92 / 105 40% 1 15.05.2027 -
Thibaud Verlinden OH Leuven Aktiv 128 / 116 40% 8 13.05.2027 -
Max Bird Birmingham Aktiv 128 / 128 40% 2 12.05.2027 -
Isaac Price West Bromwich Albion Aktiv 124 / 126 40% 1 12.05.2027 -
Boubacar Kamara Aston Villa Aktiv 161 / 154 40% 4 11.05.2027 -
Tshepang Moremi Orlando Pirates Aktiv 115 / 122 40% 4 10.05.2027 -
Daan Heymans Racing Genk Aktiv 123 / 126 40% 5 09.05.2027 -
Ozziel Herrera Tigres Aktiv 129 / 146 40% 4 09.05.2027 -
Derensili Sanches Fernandes Huddersfield Town Aktiv 124 / 130 40% 4 09.05.2027 -
Senny Mayulu Paris Saint-Germain Aktiv 150 / 159 40% 4 08.05.2027 -
Amine Adli Bournemouth Aktiv 139 / 137 40% 1 08.05.2027 -
Gabriel Silva Sporting CP Aktiv 103 / 121 40% 1 08.05.2027 -
Leo Castledine Middlesbrough Aktiv 133 / 133 40% 1 07.05.2027 -
Ethan Williams Peterborough United Aktiv 109 / 115 40% 1 04.05.2027 -
Jan Virgili Club Brugge Aktiv 129 / 125 40% 5 02.05.2027 -
Callum Hudson-Odoi Nottingham Forest Aktiv 148 / 158 40% 3 02.05.2027 -
Aimé Omgba KAA Gent Aktiv 128 / 125 40% 3 30.04.2027 -
Adriano Bertaccini Anderlecht Aktiv 132 / 123 40% 10 29.04.2027 -
Isaiah Jones Luton Town Aktiv 126 / 129 40% 2 29.04.2027 -
Fletcher Holman Swindon Town Aktiv 82 / 100 40% 1 29.04.2027 -
Lorenzo De Leo Renate Aktiv 103 / 99 40% 1 29.04.2027 -
Hicham Mahou Moreirense Aktiv 117 / 112 40% 1 24.04.2027 -
Kévin Danois AJ Auxerre Aktiv 130 / 153 40% 1 24.04.2027 -
Matvii Ponomarenko Dynamo Kyiv Aktiv 115 / 122 40% 1 24.04.2027 -
Amaury Morales Pumas UNAM Aktiv 110 / 130 40% 1 24.04.2027 -
Georginio Rutter Brighton Aktiv 151 / 152 40% 1 21.04.2027 -
Joaquín Panichelli Le Havre AC Aktiv 136 / 150 40% 2 20.04.2027 -
Jeppe Erenbjerg Racing Genk Aktiv 126 / 117 40% 4 19.04.2027 -
Jonás Luna Santa Clara Aktiv 111 / 128 40% 1 19.04.2027 -
Stefanos Tzimas Brighton Aktiv 130 / 137 40% 1 19.04.2027 -
Tiziano Dornell Danubio Aktiv 118 / 108 40% 1 19.04.2027 -
William Balikwisha OH Leuven Aktiv 117 / 117 40% 2 18.04.2027 -
Jack McGlynn Stoke City Aktiv 131 / 131 40% 2 17.04.2027 -
Kevin Fulham Aktiv 146 / 147 40% 1 17.04.2027 -
Kauã Elias Anderlecht Aktiv 132 / 141 40% 1 16.04.2027 -
Dramane Kamagaté USM Alger Aktiv 107 / 123 40% 1 16.04.2027 -
Nordan Mukiele Stade Rennais Aktiv 96 / 103 40% 1 16.04.2027 -
Chris Lokesa Waasland-Beveren Aktiv 123 / 130 40% 3 15.04.2027 -
Finn Azaz Southampton Aktiv 128 / 137 40% 1 15.04.2027 -
Thomas Waddingham Portsmouth Aktiv 104 / 116 40% 1 13.04.2027 -
Deivid Washington RC Strasbourg Aktiv 112 / 117 40% 1 13.04.2027 -
Mats Wieffer Brighton Aktiv 145 / 138 40% 2 12.04.2027 -
Kwadwo Baah Watford Aktiv 125 / 130 40% 1 12.04.2027 -
Nayel Mehssatou KV Kortrijk Aktiv 114 / 126 40% 6 10.04.2027 -
Antoine Colassin Charleroi Aktiv 116 / 108 40% 6 10.04.2027 -
Tiago Santos LOSC Lille Aktiv 146 / 154 40% 1 09.04.2027 -
Dylan Ourega Westerlo Aktiv 116 / 111 40% 1 07.04.2027 -
Tristan Degreef Anderlecht Aktiv 125 / 115 40% 2 06.04.2027 -
Luca Koleosho Paris FC Aktiv 129 / 131 40% 1 06.04.2027 -
Sofiane Diop OGC Nice Aktiv 153 / 133 40% 4 04.04.2027 -
Carlos Alcaraz Everton Aktiv 141 / 134 40% 1 04.04.2027 -
Myron van Brederode KV Mechelen Aktiv 117 / 122 40% 1 03.04.2027 -
Iker Benito Queretaro Aktiv 129 / 137 40% 1 03.04.2027 -
Diego Lainez Tigres Aktiv 122 / 128 40% 1 02.04.2027 -
Rodrigo Zalazar Sporting CP Aktiv 146 / 154 40% 1 02.04.2027 -
Ryan Sessegnon Fulham Aktiv 149 / 136 40% 1 02.04.2027 -
Félix Lemaréchal Club Brugge Aktiv 137 / 147 40% 7 30.03.2027 -
Robert-Jan Vanwesemael Sint-Truiden Aktiv 118 / 110 40% 2 30.03.2027 -
Pathé Mboup Stade Brestois Aktiv 129 / 127 40% 1 24.03.2027 -
Scott Twine Bristol City Aktiv 129 / 116 40% 1 21.03.2027 -
Kyriani Sabbe Club Brugge Aktiv 116 / 119 40% 2 20.03.2027 -
Ruben van Bommel Ferencvaros Aktiv 139 / 128 40% 1 31.12.2026 -
Abdelkahar Kadri KAA Gent Aktiv 123 / 128 40% 4 30.12.2026 -
Taiga Hata Sint-Truiden Aktiv 118 / 112 40% 4 26.12.2026 -
Nikolas Sattlberger Racing Genk Aktiv 124 / 133 40% 2 24.12.2026 -
Jakob Napoleon Romsaas Charleroi Aktiv 122 / 129 40% 2 20.12.2026 -
Cisse Sandra Westerlo Aktiv 107 / 112 40% 1 20.12.2026 -
Rémi Lemoine Chamois Niortais Aktiv 153 / 170 40% 1 15.12.2026 -
Matteo Dams Club Brugge Aktiv 125 / 121 40% 3 12.12.2026 -
Matisse Samoise KAA Gent Aktiv 126 / 118 40% 3 30.11.2026 -
Isa Sakamoto Westerlo Aktiv 112 / 115 40% 1 30.11.2026 -
Freddie Potts Club Brugge Aktiv 136 / 130 40% 5 26.11.2026 -
Ilyes Najim Waasland-Beveren Aktiv 114 / 120 40% 1 26.11.2026 -
Mardochée Nzita Charleroi Aktiv 117 / 115 40% 3 24.11.2026 -
Mamadou Diakhon Club Brugge Aktiv 121 / 134 40% 2 24.11.2026 -
Ansu Fati Monaco Aktiv 141 / 140 40% 3 23.11.2026 -
François Hubert Chamois Niortais Aktiv 131 / 143 40% 2 17.11.2026 -
Christian Tielemans KV Oostende Aktiv 136 / 133 40% 3 11.11.2026 -
Richard Gonzalez Chamois Niortais Aktiv 122 / 113 40% 1 01.11.2026 -
Fredrik Hammar KV Mechelen Aktiv 111 / 110 40% 1 27.10.2026 -
Roméo Amané Anderlecht Aktiv 117 / 126 40% 1 21.10.2026 -
Gabriel Martinelli Brighton Aktiv 156 / 172 40% 1 17.10.2026 -
Iliman N'Diaye Everton Aktiv 154 / 145 40% 1 14.10.2026 -
Bill Antonio KV Mechelen Aktiv 113 / 124 40% 1 13.10.2026 -
Yaimar Medina Racing Genk Aktiv 118 / 115 40% 1 09.10.2026 -
Tiago Araújo KAA Gent Aktiv 116 / 107 40% 1 26.09.2026 -
Xavi Simons Tottenham Aktiv 148 / 144 40% 1 25.09.2026 -
Henok Teklab OH Leuven Aktiv 113 / 105 40% 2 22.09.2026 -
Griffin Yow New England Revolution Aktiv 129 / 126 40% 1 14.09.2026 -
Maksim Kireev KV Mechelen Aktiv 123 / 117 40% 1 14.09.2026 -
Kevin Amaro Racing Genk Aktiv 121 / 135 40% 1 11.09.2026 -
Siebe Van Keymolen Zulte Waregem Aktiv 92 / 108 40% 1 01.08.2026 -